Latest Weather Observations for Young

IDN60801

Issued at 10:04 pm EDT Tuesday 3 March 2015 (issued every 30 minutes, with the page automatically refreshed every 10 minutes)

About weather observations | Map of weather stations | Latest weather observations for NSW | Other Formats
Station Details ID: 073138 Name: YOUNG AIRPORT Lat: -34.25 Lon: 148.25 Height: 379.6 m
Data from the previous 72 hours. | See also: Recent months at Young
Date/Time
EDT
Temp
°C
App
Temp
°C
Dew
Point
Rel
Hum
%
Delta-T
°C
Wind Press
QNH
hPa
Press
MSL
hPa
Rain
since 9 am
mm
Dir
 
Spd
km/h
Gust
km/h
Spd
kts
Gust
kts
03/10:00pm 18.1 17.1 11.0 63 3.9 SSE 7 7 4 4 1013.5 1012.2 0.0
03/09:30pm 19.1 19.4 10.9 59 4.5 CALM 0 0 0 0 1013.4 1012.1 0.0
03/09:00pm 20.1 19.0 10.8 55 5.2 WSW 7 9 4 5 1013.2 1011.9 0.0
03/08:30pm 22.7 22.7 11.1 48 6.6 SSW 2 6 1 3 1013.0 1011.7 0.0
03/08:00pm 24.7 23.4 11.3 43 7.7 SSW 9 11 5 6 1012.7 1011.4 0.0
03/07:30pm 27.2 25.6 11.7 38 9.0 SW 11 15 6 8 1012.5 1011.2 0.0
03/07:00pm 28.1 25.8 11.6 36 9.7 SSW 15 20 8 11 1012.2 1010.9 0.0
03/06:30pm 28.7 25.6 10.4 32 10.5 SW 17 24 9 13 1012.2 1010.9 0.0
03/06:00pm 29.0 26.1 11.1 33 10.4 SW 17 24 9 13 1012.0 1010.7 0.0
03/05:30pm 29.6 26.6 12.5 35 10.2 SSW 20 28 11 15 1011.8 1010.6 0.0
03/05:00pm 30.2 28.8 12.1 32 10.8 W 11 17 6 9 1011.8 1010.6 0.0
03/04:30pm 30.9 30.1 12.8 33 10.9 W 9 20 5 11 1011.8 1010.6 0.0
03/04:00pm 29.9 29.1 12.8 35 10.3 WSW 9 15 5 8 1012.1 1010.8 0.0
03/03:30pm 29.9 29.3 13.6 36 9.9 SW 9 17 5 9 1012.5 1011.2 0.0
03/03:00pm 30.1 29.2 13.8 37 9.9 W 11 19 6 10 1012.8 1011.5 0.0
03/02:30pm 30.0 28.8 14.1 37 9.7 W 13 20 7 11 1013.2 1011.9 0.0
03/02:00pm 29.4 27.3 13.6 38 9.6 W 17 28 9 15 1013.4 1012.1 0.0
03/01:30pm 28.9 27.8 14.3 40 8.9 WNW 13 20 7 11 1013.7 1012.5 0.0
03/01:00pm 29.6 28.9 15.3 41 8.9 NW 13 28 7 15 1014.0 1012.8 0.0
03/12:30pm 28.2 27.0 15.1 44 8.1 NNW 15 24 8 13 1014.5 1013.3 0.0
03/12:00pm 27.3 26.1 15.0 47 7.6 NW 15 24 8 13 1015.0 1013.7 0.0
03/11:30am 27.0 25.5 15.4 49 7.2 NNW 17 24 9 13 1015.3 1014.0 0.0
03/11:00am 25.9 23.7 15.0 51 6.7 N 20 32 11 17 1015.5 1014.2 0.0
03/10:30am 25.8 24.9 14.9 51 6.6 NNW 13 22 7 12 1015.6 1014.3 0.0
03/10:00am 24.2 22.9 13.7 52 6.2 N 13 17 7 9 1015.7 1014.4 0.0
03/09:30am 22.7 22.0 13.2 55 5.6 NNE 9 15 5 8 1015.7 1014.4 0.0
03/09:00am 21.4 21.7 13.3 60 4.7 NNW 4 11 2 6 1015.7 1014.4 0.0
03/08:30am 18.7 18.6 13.3 71 3.1 S 6 9 3 5 1015.8 1014.5 0.0
03/08:00am 16.7 16.6 13.2 80 2.0 SW 6 7 3 4 1015.6 1014.3 0.0
03/07:30am 14.2 13.5 12.1 87 1.2 SW 7 7 4 4 1015.0 1013.7 0.0
03/07:00am 13.9 13.2 11.9 88 1.1 SSW 7 7 4 4 1014.4 1013.2 0.0
03/06:30am 13.8 13.3 12.0 89 1.0 S 6 7 3 4 1014.1 1012.9 0.0
03/06:00am 13.9 13.3 11.6 86 1.3 SSW 6 7 3 4 1014.2 1013.0 0.0
03/05:30am 14.0 13.3 11.3 84 1.5 S 6 9 3 5 1013.9 1012.7 0.0
03/05:00am 14.7 13.8 11.5 81 1.7 SSE 7 9 4 5 1013.8 1012.6 0.0
03/04:30am 15.4 14.7 12.0 80 1.9 SSE 7 9 4 5 1013.8 1012.6 0.0
03/04:00am 15.8 15.2 11.8 77 2.2 SSE 6 7 3 4 1013.8 1012.6 0.0
03/03:30am 16.1 15.4 11.9 76 2.3 S 7 9 4 5 1013.7 1012.5 0.0
03/03:00am 17.1 16.5 12.2 73 2.7 S 7 9 4 5 1013.6 1012.3 0.0
03/02:30am 17.6 17.0 12.3 71 3.0 SSE 7 9 4 5 1013.6 1012.3 0.0
03/02:00am 17.4 16.7 12.1 71 3.0 SSE 7 9 4 5 1013.8 1012.6 0.0
03/01:30am 18.4 17.4 12.4 68 3.4 SSE 9 9 5 5 1014.2 1013.0 0.0
03/01:00am 18.8 17.8 12.3 66 3.7 SSE 9 11 5 6 1014.3 1013.1 0.0
03/12:30am 19.5 19.1 12.5 64 4.0 SSE 6 7 3 4 1014.2 1013.0 0.0
03/12:00am 20.1 20.2 12.6 62 4.3 SE 4 9 2 5 1014.2 1013.0 0.0
 
Date/Time
EDT
Temp
°C
App
Temp
°C
Dew
Point
Rel
Hum
%
Delta-T
°C
Wind Press
QNH
hPa
Press
MSL
hPa
Rain
since 9 am
mm
Dir
 
Spd
km/h
Gust
km/h
Spd
kts
Gust
kts
02/11:30pm 20.1 19.1 12.3 61 4.4 SE 9 13 5 7 1014.4 1013.2 0.0
02/11:00pm 20.5 20.0 12.5 60 4.6 SE 7 9 4 5 1014.7 1013.4 0.0
02/10:30pm 21.1 20.1 12.3 57 5.0 SE 9 13 5 7 1014.5 1013.3 0.0
02/10:00pm 22.2 21.2 12.2 53 5.7 ESE 9 15 5 8 1014.1 1012.9 0.0
02/09:30pm 23.1 20.9 12.1 50 6.3 ESE 15 33 8 18 1013.7 1012.5 0.0
02/09:00pm 23.8 21.8 12.8 50 6.4 SE 15 24 8 13 1013.1 1011.8 0.0
02/08:30pm 21.2 19.8 8.8 45 6.7 SW 6 9 3 5 1012.4 1011.1 0.0
02/08:00pm 23.7 23.5 8.9 39 8.1 CALM 0 0 0 0 1012.0 1010.7 0.0
02/07:30pm 27.5 26.8 6.8 27 11.1 CALM 0 0 0 0 1012.3 1011.0 0.0
02/07:00pm 30.0 29.2 6.6 23 12.7 CALM 0 6 0 3 1012.2 1010.9 0.0
02/06:30pm 30.7 28.7 7.2 23 12.9 NW 7 11 4 6 1012.2 1010.9 0.0
02/06:00pm 31.1 29.2 6.9 22 13.3 NNE 6 11 3 6 1011.8 1010.6 0.0
02/05:30pm 31.1 29.4 7.5 23 13.1 NW 6 15 3 8 1011.8 1010.6 0.0
02/05:00pm 31.0 28.3 7.5 23 13.0 NW 11 19 6 10 1012.1 1010.8 0.0
02/04:30pm 30.6 28.3 8.9 26 12.3 NW 11 15 6 8 1012.2 1010.9 0.0
02/04:00pm 30.5 28.5 8.8 26 12.3 N 9 20 5 11 1012.5 1011.2 0.0
02/03:30pm 31.0 28.4 9.3 26 12.4 NNE 13 20 7 11 1013.1 1011.8 0.0
02/03:00pm 29.6 27.0 9.2 28 11.6 NNW 13 20 7 11 1013.6 1012.3 0.0
02/02:30pm 29.6 27.6 10.2 30 11.2 N 11 20 6 11 1014.0 1012.8 0.0
02/02:00pm 28.2 25.0 9.9 32 10.4 NE 17 35 9 19 1014.3 1013.1 0.0
02/01:30pm 28.4 25.8 10.6 33 10.3 NNE 15 26 8 14 1014.9 1013.6 0.0
02/01:00pm 27.2 25.4 10.8 36 9.4 ENE 11 22 6 12 1015.4 1014.1 0.0
02/12:30pm 26.4 23.5 10.9 38 8.9 ENE 17 24 9 13 1016.0 1014.8 0.0
02/12:00pm 25.6 23.5 11.0 40 8.3 ESE 13 24 7 13 1016.4 1015.2 0.0
02/11:30am 23.7 21.0 10.4 43 7.5 E 15 22 8 12 1016.9 1015.7 0.0
02/11:00am 22.4 19.3 10.2 46 6.8 ESE 17 26 9 14 1017.2 1016.0 0.0
02/10:30am 20.9 17.7 9.8 49 6.1 E 17 26 9 14 1017.6 1016.3 0.0
02/10:00am 19.6 15.8 9.8 53 5.3 ESE 20 28 11 15 1017.7 1016.4 0.0
02/09:30am 18.0 13.6 9.1 56 4.7 ESE 22 33 12 18 1017.8 1016.5 0.0
02/09:00am 16.9 12.5 9.1 60 4.1 SE 22 35 12 19 1017.9 1016.6 0.2
02/08:30am 15.8 11.7 8.5 62 3.8 SE 20 35 11 19 1017.6 1016.3 0.2
02/08:00am 14.6 10.5 8.5 67 3.1 ESE 20 30 11 16 1017.6 1016.3 0.2
02/07:30am 13.9 10.2 8.1 68 2.9 SE 17 26 9 14 1017.6 1016.3 0.2
02/07:00am 13.6 10.0 8.2 70 2.7 SE 17 26 9 14 1016.9 1015.7 0.2
02/06:30am 13.8 9.8 8.4 70 2.8 SE 19 24 10 13 1016.7 1015.5 0.2
02/06:00am 14.1 10.3 9.1 72 2.6 SE 19 26 10 14 1016.4 1015.2 0.2
02/05:30am 14.6 11.2 9.2 70 2.8 SE 17 30 9 16 1016.2 1015.0 0.2
02/05:00am 15.0 12.1 9.8 71 2.7 SE 15 24 8 13 1015.9 1014.6 0.2
02/04:30am 15.2 13.2 10.2 72 2.7 SE 11 15 6 8 1015.8 1014.5 0.2
02/04:00am 15.3 13.3 10.3 72 2.7 SE 11 17 6 9 1016.0 1014.8 0.2
02/03:30am 15.8 14.5 11.4 75 2.4 WNW 9 11 5 6 1015.8 1014.5 0.2
02/03:00am 16.4 13.2 11.3 72 2.8 ESE 19 30 10 16 1015.5 1014.2 0.2
02/02:30am 16.6 12.9 11.5 72 2.8 E 22 41 12 22 1014.9 1013.6 0.2
02/02:00am 16.7 12.6 11.6 72 2.8 ESE 24 37 13 20 1015.0 1013.7 0.2
02/01:30am 16.9 12.8 11.6 71 2.9 ESE 24 39 13 21 1015.0 1013.7 0.2
02/01:00am 17.3 13.8 12.2 72 2.9 ESE 22 35 12 19 1014.8 1013.5 0.2
02/12:30am 17.6 13.1 12.7 73 2.8 ESE 28 41 15 22 1014.4 1013.2 0.2
02/12:00am 17.5 14.2 12.8 74 2.7 ESE 22 37 12 20 1014.3 1013.1 0.2
 
Date/Time
EDT
Temp
°C
App
Temp
°C
Dew
Point
Rel
Hum
%
Delta-T
°C
Wind Press
QNH
hPa
Press
MSL
hPa
Rain
since 9 am
mm
Dir
 
Spd
km/h
Gust
km/h
Spd
kts
Gust
kts
01/11:30pm 17.8 15.0 13.1 74 2.7 ESE 20 37 11 20 1014.3 1013.1 0.2
01/11:00pm 18.0 15.4 13.7 76 2.5 SE 20 33 11 18 1014.3 1013.1 0.2
01/10:30pm 18.7 16.1 13.8 73 2.9 SE 20 30 11 16 1013.8 1012.6 0.2
01/10:00pm 19.2 15.1 8.5 50 5.7 SSE 20 26 11 14 1013.2 1011.9 0.2
01/09:30pm 16.0 13.8 5.3 49 5.2 SSW 6 9 3 5 1012.7 1011.4 0.2
01/09:00pm 17.9 15.4 4.5 41 6.5 SW 7 11 4 6 1012.1 1010.8 0.2
01/08:30pm 19.9 18.4 3.2 33 8.0 CALM 0 0 0 0 1011.6 1010.4 0.2
01/08:00pm 22.7 19.0 2.2 26 9.9 SSW 11 15 6 8 1011.0 1009.7 0.2
01/07:30pm 24.7 19.5 2.2 23 11.0 SW 19 30 10 16 1010.5 1009.2 0.2
01/07:00pm 26.1 20.0 2.7 22 11.6 SW 24 32 13 17 1010.0 1008.7 0.2
01/06:30pm 27.0 20.0 4.1 23 11.7 SSW 30 41 16 22 1009.5 1008.2 0.2
01/06:00pm 27.9 20.8 3.6 21 12.4 SSW 30 44 16 24 1009.0 1007.7 0.2
01/05:30pm 28.1 22.7 7.9 28 11.1 SW 26 37 14 20 1008.7 1007.4 0.2
01/05:00pm 28.2 21.4 6.9 26 11.6 SW 32 44 17 24 1008.4 1007.1 0.2
01/04:30pm 28.4 21.6 5.3 23 12.2 SW 30 44 16 24 1008.5 1007.2 0.2
01/04:00pm 28.1 24.0 11.6 36 9.7 SW 24 35 13 19 1008.3 1007.0 0.2
01/03:37pm 28.0 24.3 15.0 45 8.0 SW 28 46 15 25 1008.4 1007.1 0.2
01/03:30pm 27.8 24.4 15.8 48 7.5 SW 28 41 15 22 1008.5 1007.2 0.2
01/03:00pm 25.8 24.2 16.4 56 5.9 SW 20 35 11 19 1008.8 1007.5 0.2
01/02:30pm 29.0 25.2 14.8 42 8.8 SW 28 43 15 23 1008.5 1007.2 0.0
01/02:00pm 29.3 26.3 14.7 41 9.0 SW 24 33 13 18 1008.3 1007.0 0.0
01/01:30pm 29.0 26.0 13.6 38 9.3 WSW 22 35 12 19 1008.4 1007.1 0.0
01/01:00pm 29.0 25.0 14.0 39 9.2 SW 28 44 15 24 1008.3 1007.0 0.0
01/12:30pm 30.0 27.7 14.1 37 9.7 WSW 19 35 10 19 1008.1 1006.8 0.0
01/12:00pm 30.9 27.7 11.3 30 11.6 WSW 19 35 10 19 1008.0 1006.7 0.0
01/11:30am 31.5 29.0 12.3 31 11.5 WNW 17 32 9 17 1008.0 1006.7 0.0
01/11:00am 30.5 28.2 14.6 38 9.9 WNW 20 41 11 22 1008.0 1006.7 0.0
01/10:30am 29.5 27.6 16.7 46 8.1 NNW 22 32 12 17 1007.6 1005.7 0.0
01/10:00am 28.5 26.1 16.4 48 7.6 NNW 24 33 13 18 1007.4 1005.5 0.0
01/09:30am 26.7 24.6 16.3 53 6.5 N 22 37 12 20 1007.2 1005.3 0.0
01/09:00am 27.2 25.6 16.5 52 6.7 N 20 30 11 16 1007.4 1005.5 0.0
01/08:30am 25.1 24.3 16.0 57 5.6 N 15 24 8 13 1007.6 1005.7 0.0
01/08:00am 21.3 21.4 15.4 69 3.6 N 9 13 5 7 1007.3 1005.4 0.0
01/07:30am 19.0 20.4 14.3 74 2.8 CALM 0 0 0 0 1007.4 1005.5 0.0
01/07:00am 16.6 16.2 12.9 79 2.1 SE 7 13 4 7 1007.4 1005.5 0.0
01/06:30am 16.5 16.9 12.5 77 2.2 SSW 2 9 1 5 1006.9 1005.0 0.0
01/06:00am 15.6 15.6 12.5 82 1.7 S 4 9 2 5 1005.9 1004.1 0.0
01/05:30am 15.2 15.8 11.8 80 1.9 CALM 0 0 0 0 1005.7 1003.9 0.0
01/05:00am 14.7 15.2 11.7 82 1.7 CALM 0 0 0 0 1005.5 1003.6 0.0
01/04:30am 14.5 15.0 11.6 83 1.6 CALM 0 0 0 0 1005.4 1003.5 0.0
01/04:00am 14.5 14.2 11.3 81 1.7 S 4 7 2 4 1005.6 1003.8 0.0
01/03:30am 14.8 14.2 11.8 82 1.6 SSW 6 7 3 4 1005.5 1003.6 0.0
01/03:00am 15.5 16.0 11.7 78 2.1 CALM 0 0 0 0 1005.7 1003.9 0.0
01/02:30am 15.3 15.1 11.9 80 1.9 SW 4 7 2 4 1005.7 1003.9 0.0
01/02:00am 15.9 16.1 11.9 77 2.2 SSW 2 9 1 5 1006.1 1004.3 0.0
01/01:30am 16.3 15.7 11.7 74 2.5 SSE 6 6 3 3 1006.5 1004.6 0.0
01/01:00am 16.7 15.9 11.8 73 2.7 SSW 7 9 4 5 1006.9 1005.0 0.0
01/12:30am 17.3 16.5 11.6 69 3.2 SSW 7 9 4 5 1006.9 1005.0 0.0
01/12:00am 18.4 17.8 11.7 65 3.8 SSE 6 7 3 4 1007.1 1005.2 0.0
 
Date/Time
EDT
Temp
°C
App
Temp
°C
Dew
Point
Rel
Hum
%
Delta-T
°C
Wind Press
QNH
hPa
Press
MSL
hPa
Rain
since 9 am
mm
Dir
 
Spd
km/h
Gust
km/h
Spd
kts
Gust
kts
28/11:30pm 18.1 18.8 12.1 68 3.4 CALM 0 0 0 0 1007.2 1005.3 0.0
28/11:00pm 18.9 19.7 12.6 67 3.6 CALM 0 0 0 0 1007.1 1005.2 0.0
28/10:30pm 19.7 20.4 12.2 62 4.3 CALM 0 0 0 0 1007.3 1005.4 0.0

Other Formats:

Comma delimited format used in spreadsheet applications
http://www.bom.gov.au/fwo/IDN60801/IDN60801.94712.axf

JavaScript Object Notation format (JSON) in row-major order
http://www.bom.gov.au/fwo/IDN60801/IDN60801.94712.json